Terminal Aerodrome Forecast
Issued by NWS

Home | Current Version | Previous Version | Text Only | Print | Product List | Glossary On
Versions: 1 2 3 4 5 6 7 8 9 10 11 12 13 14 15 16 17 18 19 20 21 22 23 24 25 26
000
FTUS42 KILM 171722
TAFCRE
TAF
KCRE 171722Z 1718/1818 09008KT P6SM OVC015
     FM172000 10007KT 6SM BR OVC009
     FM172300 18005KT 3SM BR OVC003
     FM180200 21007KT P6SM SCT005 SCT035 BKN080
     FM181000 32005KT P6SM BKN007
     FM181200 36008KT P6SM BKN070=

USA.gov is the U.S. government's official web portal to all federal, state and local government web resources and services.